createdAt,value
2018-05-01T00:00:16.897Z,12.48
2018-05-01T00:01:16.934Z,12.48
2018-05-01T00:02:17.199Z,12.42
2018-05-01T00:03:16.465Z,12.42
2018-05-01T00:04:16.729Z,12.42
2018-05-01T00:05:16.991Z,12.42
2018-05-01T00:06:17.248Z,12.42
2018-05-01T00:07:16.509Z,12.42
2018-05-01T00:08:16.789Z,12.36
2018-05-01T00:09:17.065Z,12.36
2018-05-01T00:10:16.357Z,12.36
2018-05-01T00:11:16.427Z,12.30
2018-05-01T00:12:16.694Z,12.30
2018-05-01T00:13:16.965Z,12.23
2018-05-01T00:14:17.227Z,12.23
2018-05-01T00:15:16.523Z,12.17
2018-05-01T00:16:16.794Z,12.17
2018-05-01T00:17:17.059Z,12.11
2018-05-01T00:18:16.325Z,12.11
2018-05-01T00:19:16.589Z,12.11
2018-05-01T00:20:16.855Z,12.11
2018-05-01T00:21:16.900Z,12.11
2018-05-01T00:22:17.433Z,12.17
2018-05-01T00:23:16.701Z,12.11
2018-05-01T00:24:16.968Z,12.11
2018-05-01T00:25:17.235Z,12.11
2018-05-01T00:26:16.501Z,12.11
2018-05-01T00:27:16.769Z,12.11
2018-05-01T00:28:17.034Z,12.05
2018-05-01T00:29:16.298Z,12.05
2018-05-01T00:30:16.574Z,11.98
2018-05-01T00:31:16.607Z,11.92
2018-05-01T00:32:16.870Z,11.92
2018-05-01T00:33:17.137Z,11.86
2018-05-01T00:34:16.397Z,11.86
2018-05-01T00:35:16.662Z,11.86
2018-05-01T00:36:16.937Z,11.80
2018-05-01T00:37:17.353Z,11.80
2018-05-01T00:38:16.608Z,11.80
2018-05-01T00:39:16.873Z,11.80
2018-05-01T00:40:17.136Z,11.80
2018-05-01T00:41:17.177Z,11.80
2018-05-01T00:42:16.438Z,11.80
2018-05-01T00:43:16.705Z,11.80
2018-05-01T00:44:16.953Z,11.80
2018-05-01T00:45:17.217Z,11.86
2018-05-01T00:46:16.488Z,11.86
2018-05-01T00:47:16.748Z,11.80
2018-05-01T00:48:17.009Z,11.80
2018-05-01T00:49:16.273Z,11.80
2018-05-01T00:50:16.542Z,11.80
2018-05-01T00:51:16.591Z,11.80
2018-05-01T00:52:16.854Z,11.80
2018-05-01T00:53:17.120Z,11.80
2018-05-01T00:54:16.381Z,11.73
2018-05-01T00:55:16.653Z,11.73
2018-05-01T00:56:16.923Z,11.73
2018-05-01T00:57:17.187Z,11.73
2018-05-01T00:58:16.446Z,11.73
2018-05-01T00:59:16.720Z,11.73
2018-05-01T01:00:16.987Z,11.73
2018-05-01T01:01:17.022Z,11.80
2018-05-01T01:02:16.283Z,11.80
2018-05-01T01:03:16.559Z,11.73
2018-05-01T01:04:16.821Z,11.73
2018-05-01T01:05:17.077Z,11.80
2018-05-01T01:06:16.334Z,11.80
2018-05-01T01:07:16.607Z,11.80
2018-05-01T01:08:16.865Z,11.73
2018-05-01T01:09:17.410Z,11.73
2018-05-01T01:10:16.748Z,11.73
2018-05-01T01:11:16.794Z,11.67
2018-05-01T01:12:17.053Z,11.73
2018-05-01T01:13:16.318Z,11.73
2018-05-01T01:14:16.601Z,11.73
2018-05-01T01:15:16.870Z,11.73
2018-05-01T01:16:17.134Z,11.67
2018-05-01T01:17:16.392Z,11.67
2018-05-01T01:18:16.671Z,11.67
2018-05-01T01:19:16.990Z,11.67
2018-05-01T01:20:17.265Z,11.73
2018-05-01T01:21:16.317Z,11.73
2018-05-01T01:22:16.581Z,11.73
2018-05-01T01:23:16.849Z,11.73
2018-05-01T01:24:17.110Z,11.73
2018-05-01T01:25:16.379Z,11.73
2018-05-01T01:26:16.644Z,11.80
2018-05-01T01:27:16.913Z,11.73
2018-05-01T01:28:17.176Z,11.73
2018-05-01T01:29:16.442Z,11.73
2018-05-01T01:30:16.717Z,11.73
2018-05-01T01:31:16.741Z,11.73
2018-05-01T01:32:17.015Z,11.67
2018-05-01T01:33:16.275Z,11.67
2018-05-01T01:34:16.540Z,11.67
2018-05-01T01:35:16.801Z,11.67
2018-05-01T01:36:17.061Z,11.73
2018-05-01T01:37:16.317Z,11.67
2018-05-01T01:38:16.582Z,11.67
2018-05-01T01:39:16.846Z,11.67
2018-05-01T01:40:17.280Z,11.67
2018-05-01T01:41:17.147Z,11.67
2018-05-01T01:42:16.406Z,11.67
2018-05-01T01:43:16.671Z,11.67
2018-05-01T01:44:16.944Z,11.61
2018-05-01T01:45:16.276Z,11.61
2018-05-01T01:46:16.536Z,11.61
2018-05-01T01:47:16.799Z,11.61
2018-05-01T01:48:17.063Z,11.61
2018-05-01T01:49:16.321Z,11.61
2018-05-01T01:50:16.598Z,11.61
2018-05-01T01:51:16.644Z,11.61
2018-05-01T01:52:16.900Z,11.61
2018-05-01T01:53:17.162Z,11.61
2018-05-01T01:54:16.430Z,11.61
2018-05-01T01:55:16.771Z,11.55
2018-05-01T01:56:17.054Z,11.61
2018-05-01T01:57:16.403Z,11.61
2018-05-01T01:58:16.661Z,11.61
2018-05-01T01:59:16.924Z,11.55
2018-05-01T02:00:17.195Z,11.55
2018-05-01T02:01:17.233Z,11.55
2018-05-01T02:02:16.511Z,11.55
2018-05-01T02:03:16.776Z,11.55
2018-05-01T02:04:17.048Z,11.55
2018-05-01T02:05:16.888Z,11.55
2018-05-01T02:06:17.151Z,11.48
2018-05-01T02:07:16.415Z,11.48
2018-05-01T02:08:16.681Z,11.48
2018-05-01T02:09:16.940Z,11.55
2018-05-01T02:10:17.212Z,11.48
2018-05-01T02:11:17.265Z,11.48
2018-05-01T02:12:16.529Z,11.48
2018-05-01T02:13:16.785Z,11.48
2018-05-01T02:14:17.041Z,11.48
2018-05-01T02:15:16.310Z,11.48
2018-05-01T02:16:16.574Z,11.42
2018-05-01T02:17:16.838Z,11.42
2018-05-01T02:18:17.103Z,11.42
2018-05-01T02:19:16.379Z,11.48
2018-05-01T02:20:16.665Z,11.42
2018-05-01T02:21:17.027Z,11.48
2018-05-01T02:22:16.291Z,11.42
2018-05-01T02:23:16.561Z,11.48
2018-05-01T02:24:16.831Z,11.48
2018-05-01T02:25:17.097Z,11.48
2018-05-01T02:26:16.356Z,11.42
2018-05-01T02:27:16.622Z,11.42
2018-05-01T02:28:16.896Z,11.48
2018-05-01T02:29:17.147Z,11.42
2018-05-01T02:30:16.413Z,11.42
2018-05-01T02:31:16.455Z,11.48
2018-05-01T02:32:16.728Z,11.42
2018-05-01T02:33:17.000Z,11.36
2018-05-01T02:34:17.261Z,11.36
2018-05-01T02:35:16.539Z,11.36
2018-05-01T02:36:16.802Z,11.36
2018-05-01T02:37:17.095Z,11.30
2018-05-01T02:38:16.361Z,11.30
2018-05-01T02:39:16.632Z,11.36
2018-05-01T02:40:16.916Z,11.36
2018-05-01T02:41:17.255Z,11.30
2018-05-01T02:42:16.583Z,11.36
2018-05-01T02:43:16.847Z,11.36
2018-05-01T02:44:17.111Z,11.30
2018-05-01T02:45:16.827Z,11.36
2018-05-01T02:46:17.091Z,11.36
2018-05-01T02:47:16.353Z,11.36
2018-05-01T02:48:16.618Z,11.36
2018-05-01T02:49:16.385Z,11.30
2018-05-01T02:50:16.649Z,11.30
2018-05-01T02:51:16.696Z,11.36
2018-05-01T02:52:16.979Z,11.36
2018-05-01T02:53:17.246Z,11.36
2018-05-01T02:54:16.508Z,11.42
2018-05-01T02:55:16.769Z,11.42
2018-05-01T02:56:17.029Z,11.36
2018-05-01T02:57:16.309Z,11.36
2018-05-01T02:58:16.575Z,11.36
2018-05-01T02:59:16.895Z,11.36
2018-05-01T03:00:17.185Z,11.42
2018-05-01T03:01:17.217Z,11.36
2018-05-01T03:02:16.479Z,11.36
2018-05-01T03:03:16.734Z,11.30
2018-05-01T03:04:16.996Z,11.30
2018-05-01T03:05:16.280Z,11.30
2018-05-01T03:06:16.548Z,11.36
2018-05-01T03:07:16.816Z,11.36
2018-05-01T03:08:17.168Z,11.30
2018-05-01T03:09:16.437Z,11.36
2018-05-01T03:10:16.712Z,11.30
2018-05-01T03:11:16.737Z,11.30
2018-05-01T03:12:17.015Z,11.30
2018-05-01T03:13:16.566Z,11.23
2018-05-01T03:14:16.830Z,11.23
2018-05-01T03:15:17.097Z,11.23
2018-05-01T03:16:16.355Z,11.17
2018-05-01T03:17:16.620Z,11.11
2018-05-01T03:18:16.880Z,11.11
2018-05-01T03:19:17.127Z,11.11
2018-05-01T03:20:16.404Z,11.11
2018-05-01T03:21:16.442Z,11.11
2018-05-01T03:22:16.705Z,11.11
2018-05-01T03:23:16.969Z,11.11
2018-05-01T03:24:17.239Z,11.11
2018-05-01T03:25:16.538Z,11.05
2018-05-01T03:26:16.879Z,11.05
2018-05-01T03:27:17.152Z,11.05
2018-05-01T03:28:16.410Z,11.05
2018-05-01T03:29:16.670Z,11.05
2018-05-01T03:30:16.941Z,11.05
2018-05-01T03:31:16.996Z,11.05
2018-05-01T03:32:17.259Z,11.05
2018-05-01T03:33:16.521Z,11.05
2018-05-01T03:34:16.788Z,11.05
2018-05-01T03:35:17.051Z,11.05
2018-05-01T03:36:16.326Z,11.05
2018-05-01T03:37:16.590Z,11.05
2018-05-01T03:38:16.853Z,10.98
2018-05-01T03:39:17.152Z,10.98
2018-05-01T03:40:16.555Z,10.98
2018-05-01T03:41:16.592Z,10.92
2018-05-01T03:42:16.846Z,10.98
2018-05-01T03:43:17.099Z,10.92
2018-05-01T03:44:16.365Z,10.92
2018-05-01T03:45:16.624Z,10.92
2018-05-01T03:46:16.888Z,10.92
2018-05-01T03:47:17.150Z,10.86
2018-05-01T03:48:16.415Z,10.86
2018-05-01T03:49:16.676Z,10.86
2018-05-01T03:50:16.939Z,10.80
2018-05-01T03:51:16.972Z,10.86
2018-05-01T03:52:17.237Z,10.80
2018-05-01T03:53:16.499Z,10.80
2018-05-01T03:54:16.759Z,10.80
2018-05-01T03:55:17.016Z,10.80
2018-05-01T03:56:16.275Z,10.80
2018-05-01T03:57:16.535Z,10.80
2018-05-01T03:58:16.803Z,10.73
2018-05-01T03:59:17.137Z,10.73
2018-05-01T04:00:16.410Z,10.73
2018-05-01T04:01:16.445Z,10.73
2018-05-01T04:02:16.763Z,10.73
2018-05-01T04:03:17.105Z,10.67
2018-05-01T04:04:16.370Z,10.67
2018-05-01T04:05:16.640Z,10.67
2018-05-01T04:06:16.897Z,10.61
2018-05-01T04:07:16.578Z,10.61
2018-05-01T04:08:16.831Z,10.61
2018-05-01T04:09:17.092Z,10.61
2018-05-01T04:10:16.361Z,10.61
2018-05-01T04:11:16.420Z,10.61
2018-05-01T04:12:16.679Z,10.61
2018-05-01T04:13:16.947Z,10.48
2018-05-01T04:14:17.224Z,10.48
2018-05-01T04:15:16.491Z,10.48
2018-05-01T04:16:16.753Z,10.48
2018-05-01T04:17:17.014Z,10.48
2018-05-01T04:18:16.370Z,10.48
2018-05-01T04:19:16.699Z,10.48
2018-05-01T04:20:16.968Z,10.42
2018-05-01T04:21:16.998Z,10.42
2018-05-01T04:22:17.511Z,10.36
2018-05-01T04:23:16.766Z,10.36
2018-05-01T04:24:17.033Z,10.42
2018-05-01T04:25:16.313Z,10.36
2018-05-01T04:26:16.643Z,10.36
2018-05-01T04:27:16.906Z,10.36
2018-05-01T04:28:17.175Z,10.36
2018-05-01T04:29:16.432Z,10.36
2018-05-01T04:30:16.703Z,10.30
2018-05-01T04:31:16.736Z,10.30
2018-05-01T04:32:17.039Z,10.30
2018-05-01T04:33:16.312Z,10.23
2018-05-01T04:34:16.577Z,10.23
2018-05-01T04:35:16.840Z,10.30
2018-05-01T04:36:17.105Z,10.23
2018-05-01T04:37:16.367Z,10.23
2018-05-01T04:38:16.640Z,10.23
2018-05-01T04:39:16.907Z,10.23
2018-05-01T04:40:17.177Z,10.23
2018-05-01T04:41:17.219Z,10.23
2018-05-01T04:42:16.478Z,10.17
2018-05-01T04:43:16.741Z,10.17
2018-05-01T04:44:17.010Z,10.17
2018-05-01T04:45:16.280Z,10.17
2018-05-01T04:46:16.537Z,10.11
2018-05-01T04:47:16.807Z,10.11
2018-05-01T04:48:17.062Z,10.11
2018-05-01T04:49:16.324Z,10.11
2018-05-01T04:50:16.592Z,10.05
2018-05-01T04:51:16.618Z,10.05
2018-05-01T04:52:16.881Z,10.05
2018-05-01T04:53:17.139Z,9.98
2018-05-01T04:54:16.402Z,9.98
2018-05-01T04:55:16.668Z,9.98
2018-05-01T04:56:16.930Z,9.98
2018-05-01T04:57:17.188Z,9.92
2018-05-01T04:58:16.451Z,9.92
2018-05-01T04:59:16.720Z,9.92
2018-05-01T05:00:16.986Z,9.86
2018-05-01T05:01:17.029Z,9.86
2018-05-01T05:02:16.287Z,9.86
2018-05-01T05:03:16.547Z,9.86
2018-05-01T05:04:16.808Z,9.86
2018-05-01T05:05:17.061Z,9.86
2018-05-01T05:06:16.331Z,9.86
2018-05-01T05:07:16.586Z,9.80
2018-05-01T05:08:16.847Z,9.80
2018-05-01T05:09:17.117Z,9.80
2018-05-01T05:10:16.383Z,9.80
2018-05-01T05:11:16.420Z,9.80
2018-05-01T05:12:16.681Z,9.80
2018-05-01T05:13:16.945Z,9.80
2018-05-01T05:14:17.227Z,9.80
2018-05-01T05:15:16.502Z,9.73
2018-05-01T05:16:16.775Z,9.73
2018-05-01T05:17:17.041Z,9.67
2018-05-01T05:18:16.307Z,9.73
2018-05-01T05:19:16.569Z,9.73
2018-05-01T05:20:16.843Z,9.73
2018-05-01T05:21:16.946Z,9.67
2018-05-01T05:22:17.212Z,9.67
2018-05-01T05:23:16.469Z,9.67
2018-05-01T05:24:16.742Z,9.73
2018-05-01T05:25:17.002Z,9.73
2018-05-01T05:26:17.269Z,9.67
2018-05-01T05:27:16.540Z,9.73
2018-05-01T05:28:16.804Z,9.73
2018-05-01T05:29:17.062Z,9.67
2018-05-01T05:30:16.335Z,9.67
2018-05-01T05:31:16.373Z,9.67
2018-05-01T05:32:16.635Z,9.73
2018-05-01T05:33:16.896Z,9.73
2018-05-01T05:34:17.164Z,9.73
2018-05-01T05:35:16.440Z,9.73
2018-05-01T05:36:16.752Z,9.73
2018-05-01T05:37:17.095Z,9.73
2018-05-01T05:38:16.356Z,9.73
2018-05-01T05:39:16.612Z,9.73
2018-05-01T05:40:16.879Z,9.73
2018-05-01T05:41:16.915Z,9.73
2018-05-01T05:42:17.176Z,9.67
2018-05-01T05:43:16.433Z,9.61
2018-05-01T05:44:16.697Z,9.61
2018-05-01T05:45:16.968Z,9.61
2018-05-01T05:46:17.229Z,9.61
2018-05-01T05:47:16.488Z,9.61
2018-05-01T05:48:16.753Z,9.61
2018-05-01T05:49:17.009Z,9.67
2018-05-01T05:50:17.278Z,9.67
2018-05-01T05:51:16.333Z,9.61
2018-05-01T05:52:16.595Z,9.61
2018-05-01T05:53:16.859Z,9.61
2018-05-01T05:54:17.131Z,9.61
2018-05-01T05:55:16.405Z,9.61
2018-05-01T05:56:16.672Z,9.67
2018-05-01T05:57:16.923Z,9.67
2018-05-01T05:58:17.183Z,9.67
2018-05-01T05:59:16.444Z,9.61
2018-05-01T06:00:17.025Z,9.67
2018-05-01T06:01:17.063Z,9.67
2018-05-01T06:02:16.323Z,9.67
2018-05-01T06:03:16.597Z,9.67
2018-05-01T06:04:16.853Z,9.61
2018-05-01T06:05:17.119Z,9.61
2018-05-01T06:06:16.384Z,9.61
2018-05-01T06:07:16.646Z,9.61
2018-05-01T06:08:16.899Z,9.61
2018-05-01T06:09:17.166Z,9.61
2018-05-01T06:10:16.432Z,9.67
2018-05-01T06:11:16.478Z,9.67
2018-05-01T06:12:16.736Z,9.67
2018-05-01T06:13:16.993Z,9.67
2018-05-01T06:14:17.251Z,9.73
2018-05-01T06:15:16.516Z,9.80
2018-05-01T06:16:16.777Z,9.80
2018-05-01T06:17:17.032Z,9.80
2018-05-01T06:18:16.300Z,9.80
2018-05-01T06:19:16.562Z,9.73
2018-05-01T06:20:16.834Z,9.73
2018-05-01T06:21:16.866Z,9.67
2018-05-01T06:22:17.128Z,9.73
2018-05-01T06:23:16.391Z,9.73
2018-05-01T06:24:16.655Z,9.73
2018-05-01T06:25:16.914Z,9.73
2018-05-01T06:26:17.175Z,9.67
2018-05-01T06:27:16.496Z,9.67
2018-05-01T06:28:16.754Z,9.61
2018-05-01T06:29:17.018Z,9.67
2018-05-01T06:30:16.293Z,9.55
2018-05-01T06:31:16.376Z,9.55
2018-05-01T06:32:16.724Z,9.48
2018-05-01T06:33:16.987Z,9.42
2018-05-01T06:34:17.253Z,9.36
2018-05-01T06:35:16.516Z,9.42
2018-05-01T06:36:16.781Z,9.36
2018-05-01T06:37:17.035Z,9.36
2018-05-01T06:38:16.301Z,9.36
2018-05-01T06:39:16.566Z,9.36
2018-05-01T06:40:16.828Z,9.42
2018-05-01T06:41:16.884Z,9.30
2018-05-01T06:42:17.138Z,9.23
2018-05-01T06:43:16.394Z,9.23
2018-05-01T06:44:16.972Z,9.23
2018-05-01T06:45:17.515Z,9.17
2018-05-01T06:46:16.779Z,9.11
2018-05-01T06:47:17.035Z,9.05
2018-05-01T06:48:16.293Z,8.92
2018-05-01T06:49:16.551Z,8.98
2018-05-01T06:50:16.824Z,8.92
2018-05-01T06:51:16.860Z,8.92
2018-05-01T06:52:17.116Z,8.92
2018-05-01T06:53:16.384Z,8.98
2018-05-01T06:54:16.637Z,8.98
2018-05-01T06:55:16.899Z,9.05
2018-05-01T06:56:17.165Z,9.05
2018-05-01T06:57:16.428Z,9.11
2018-05-01T06:58:16.692Z,9.05
2018-05-01T06:59:16.958Z,9.05
2018-05-01T07:00:17.241Z,9.11
2018-05-01T07:01:16.285Z,9.17
2018-05-01T07:02:16.552Z,9.23
2018-05-01T07:03:16.997Z,9.17
2018-05-01T07:04:17.371Z,9.17
2018-05-01T07:05:16.875Z,9.11
2018-05-01T07:06:17.131Z,9.17
2018-05-01T07:07:16.390Z,9.11
2018-05-01T07:08:16.660Z,9.11
2018-05-01T07:09:16.930Z,9.05
2018-05-01T07:10:17.208Z,9.05
2018-05-01T07:11:17.226Z,9.11
2018-05-01T07:12:16.491Z,9.30
2018-05-01T07:13:16.756Z,9.23
2018-05-01T07:14:17.019Z,9.23
2018-05-01T07:15:16.286Z,9.17
2018-05-01T07:16:16.554Z,9.30
2018-05-01T07:17:16.814Z,9.36
2018-05-01T07:18:17.077Z,9.48
2018-05-01T07:19:16.347Z,9.55
2018-05-01T07:20:16.636Z,9.42
2018-05-01T07:21:16.718Z,9.48
2018-05-01T07:22:17.043Z,9.23
2018-05-01T07:23:16.303Z,9.05
2018-05-01T07:24:16.573Z,9.11
2018-05-01T07:25:16.849Z,9.11
2018-05-01T07:26:17.119Z,9.05
2018-05-01T07:27:16.380Z,9.05
2018-05-01T07:28:16.646Z,8.86
2018-05-01T07:29:16.909Z,8.98
2018-05-01T07:30:17.173Z,9.11
2018-05-01T07:31:17.216Z,9.11
2018-05-01T07:32:16.478Z,9.11
2018-05-01T07:33:16.741Z,8.98
2018-05-01T07:34:17.001Z,9.05
2018-05-01T07:35:16.271Z,8.92
2018-05-01T07:36:16.528Z,8.98
2018-05-01T07:37:16.791Z,8.98
2018-05-01T07:38:17.067Z,9.05
2018-05-01T07:39:16.331Z,9.23
2018-05-01T07:40:16.598Z,9.11
2018-05-01T07:41:16.635Z,9.17
2018-05-01T07:42:16.906Z,9.17
2018-05-01T07:43:17.161Z,8.98
2018-05-01T07:44:16.416Z,9.17
2018-05-01T07:45:16.748Z,9.17
2018-05-01T07:46:17.018Z,9.23
2018-05-01T07:47:16.285Z,9.30
2018-05-01T07:48:16.581Z,9.17
2018-05-01T07:49:16.845Z,9.11
2018-05-01T07:50:17.120Z,9.23
2018-05-01T07:51:17.175Z,9.23
2018-05-01T07:52:16.439Z,9.23
2018-05-01T07:53:16.707Z,9.05
2018-05-01T07:54:16.968Z,9.05
2018-05-01T07:55:17.231Z,9.05
2018-05-01T07:56:16.501Z,8.98
2018-05-01T07:57:16.767Z,9.05
2018-05-01T07:58:17.031Z,9.17
2018-05-01T07:59:16.291Z,9.23
2018-05-01T08:00:16.562Z,9.11
2018-05-01T08:01:16.596Z,9.23
2018-05-01T08:02:16.864Z,9.11
2018-05-01T08:03:17.124Z,9.23
2018-05-01T08:04:16.383Z,9.17
2018-05-01T08:05:16.646Z,9.23
2018-05-01T08:06:16.916Z,9.17
2018-05-01T08:07:17.179Z,9.11
2018-05-01T08:08:16.445Z,9.17
2018-05-01T08:09:16.712Z,9.05
2018-05-01T08:10:17.056Z,9.11
2018-05-01T08:11:17.103Z,8.92
2018-05-01T08:12:16.372Z,8.86
2018-05-01T08:13:16.632Z,8.92
2018-05-01T08:14:16.907Z,8.98
2018-05-01T08:15:17.182Z,9.17
2018-05-01T08:16:16.442Z,9.23
2018-05-01T08:17:16.704Z,9.30
2018-05-01T08:18:16.971Z,9.23
2018-05-01T08:19:17.256Z,9.30
2018-05-01T08:20:16.524Z,9.36
2018-05-01T08:21:16.569Z,9.30
2018-05-01T08:22:16.828Z,9.42
2018-05-01T08:23:17.086Z,9.61
2018-05-01T08:24:16.355Z,9.61
2018-05-01T08:25:16.623Z,9.61
2018-05-01T08:26:16.876Z,9.61
2018-05-01T08:27:17.142Z,9.80
2018-05-01T08:28:16.406Z,9.61
2018-05-01T08:29:16.668Z,9.55
2018-05-01T08:30:16.945Z,9.23
2018-05-01T08:31:16.998Z,9.23
2018-05-01T08:32:17.261Z,9.42
2018-05-01T08:33:16.524Z,9.23
2018-05-01T08:34:16.786Z,9.55
2018-05-01T08:35:17.046Z,9.73
2018-05-01T08:36:16.301Z,9.55
2018-05-01T08:37:16.562Z,9.55
2018-05-01T08:38:16.823Z,9.73
2018-05-01T08:39:17.082Z,9.73
2018-05-01T08:40:16.344Z,9.86
2018-05-01T08:41:16.392Z,9.80
2018-05-01T08:42:16.657Z,10.05
2018-05-01T08:43:16.917Z,10.05
2018-05-01T08:44:17.172Z,9.92
2018-05-01T08:45:16.480Z,9.92
2018-05-01T08:46:16.812Z,9.92
2018-05-01T08:47:17.077Z,9.86
2018-05-01T08:48:16.344Z,9.67
2018-05-01T08:49:16.620Z,9.42
2018-05-01T08:50:16.881Z,9.23
2018-05-01T08:51:16.921Z,9.17
2018-05-01T08:52:17.175Z,9.42
2018-05-01T08:53:16.438Z,9.55
2018-05-01T08:54:16.695Z,9.55
2018-05-01T08:55:16.958Z,9.86
2018-05-01T08:56:17.214Z,9.80
2018-05-01T08:57:16.484Z,9.67
2018-05-01T08:58:16.922Z,9.55
2018-05-01T08:59:17.188Z,9.73
2018-05-01T09:00:16.468Z,9.80
2018-05-01T09:01:16.509Z,9.98
2018-05-01T09:02:16.779Z,9.73
2018-05-01T09:03:17.045Z,9.86
2018-05-01T09:04:16.353Z,9.86
2018-05-01T09:05:16.844Z,9.61
2018-05-01T09:06:17.112Z,9.55
2018-05-01T09:07:16.369Z,9.80
2018-05-01T09:08:16.636Z,9.86
2018-05-01T09:09:16.895Z,9.73
2018-05-01T09:10:17.164Z,9.73
2018-05-01T09:11:17.200Z,9.67
2018-05-01T09:12:16.452Z,9.61
2018-05-01T09:13:16.730Z,9.80
2018-05-01T09:14:16.994Z,9.73
2018-05-01T09:15:17.294Z,9.67
2018-05-01T09:16:16.552Z,9.86
2018-05-01T09:17:16.818Z,9.86
2018-05-01T09:18:17.227Z,9.86
2018-05-01T09:19:16.818Z,10.05
2018-05-01T09:20:17.085Z,10.23
2018-05-01T09:21:17.135Z,10.48
2018-05-01T09:22:16.404Z,10.61
2018-05-01T09:23:16.664Z,10.36
2018-05-01T09:24:16.924Z,10.73
2018-05-01T09:25:17.193Z,11.11
2018-05-01T09:26:16.583Z,11.54
2018-05-01T09:27:16.845Z,11.98
2018-05-01T09:28:17.104Z,12.18
2018-05-01T09:29:16.372Z,12.23
2018-05-01T09:30:16.637Z,12.61
2018-05-01T09:31:16.687Z,12.42
2018-05-01T09:32:16.944Z,12.55
2018-05-01T09:33:17.203Z,12.60
2018-05-01T09:34:16.467Z,12.09
2018-05-01T09:35:16.814Z,12.06
2018-05-01T09:36:17.091Z,11.67
2018-05-01T09:37:16.370Z,11.39
2018-05-01T09:38:16.638Z,11.17
2018-05-01T09:39:16.899Z,11.38
2018-05-01T09:40:17.174Z,11.54
2018-05-01T09:41:17.198Z,11.98
2018-05-01T09:42:16.454Z,12.23
2018-05-01T09:43:16.713Z,11.98
2018-05-01T09:44:16.980Z,12.11
2018-05-01T09:45:17.246Z,11.55
2018-05-01T09:46:16.512Z,11.23
2018-05-01T09:47:16.791Z,11.11
2018-05-01T09:48:17.061Z,11.30
2018-05-01T09:49:16.336Z,11.55
2018-05-01T09:50:16.606Z,11.42
2018-05-01T09:51:16.654Z,11.48
2018-05-01T09:52:16.911Z,11.11
2018-05-01T09:53:17.313Z,10.86
2018-05-01T09:54:16.672Z,10.80
2018-05-01T09:55:16.929Z,10.61
2018-05-01T09:56:17.188Z,11.11
2018-05-01T09:57:16.451Z,11.42
2018-05-01T09:58:16.726Z,11.61
2018-05-01T09:59:16.993Z,11.42
2018-05-01T10:00:17.266Z,11.42
2018-05-01T10:01:16.313Z,11.48
2018-05-01T10:02:16.580Z,11.30
2018-05-01T10:03:16.843Z,11.61
2018-05-01T10:04:17.104Z,11.86
2018-05-01T10:05:16.369Z,11.80
2018-05-01T10:06:16.639Z,12.11
2018-05-01T10:07:16.909Z,12.23
2018-05-01T10:08:17.174Z,11.72
2018-05-01T10:09:16.445Z,11.54
2018-05-01T10:10:16.719Z,11.61
2018-05-01T10:11:16.756Z,11.91
2018-05-01T10:12:17.120Z,11.87
2018-05-01T10:13:16.475Z,11.84
2018-05-01T10:14:16.737Z,11.94
2018-05-01T10:15:16.996Z,11.95
2018-05-01T10:16:17.261Z,11.98
2018-05-01T10:17:16.529Z,12.35
2018-05-01T10:18:16.795Z,12.46
2018-05-01T10:19:17.060Z,12.86
2018-05-01T10:20:16.335Z,12.55
2018-05-01T10:21:16.396Z,12.42
2018-05-01T10:22:16.663Z,12.61
2018-05-01T10:23:16.924Z,12.73
2018-05-01T10:24:17.200Z,12.92
2018-05-01T10:25:16.457Z,12.66
2018-05-01T10:26:16.719Z,12.67
2018-05-01T10:27:16.998Z,12.69
2018-05-01T10:28:17.269Z,12.67
2018-05-01T10:29:16.537Z,12.86
2018-05-01T10:30:16.805Z,12.42
2018-05-01T10:31:16.833Z,12.61
2018-05-01T10:32:17.111Z,12.74
2018-05-01T10:33:16.372Z,12.86
2018-05-01T10:34:16.635Z,13.00
2018-05-01T10:35:16.910Z,12.90
2018-05-01T10:36:17.172Z,12.89
2018-05-01T10:37:16.430Z,13.48
2018-05-01T10:38:16.697Z,13.48
2018-05-01T10:39:16.958Z,13.55
2018-05-01T10:40:17.232Z,13.05
2018-05-01T10:41:17.278Z,13.30
2018-05-01T10:42:16.550Z,12.92
2018-05-01T10:43:16.817Z,13.11
2018-05-01T10:44:17.080Z,13.17
2018-05-01T10:45:16.341Z,13.23
2018-05-01T10:46:16.606Z,13.11
2018-05-01T10:47:16.884Z,13.42
2018-05-01T10:48:17.151Z,13.42
2018-05-01T10:49:16.410Z,13.48
2018-05-01T10:50:16.737Z,13.42
2018-05-01T10:51:16.821Z,13.73
2018-05-01T10:52:17.079Z,13.75
2018-05-01T10:53:16.329Z,13.56
2018-05-01T10:54:16.585Z,13.36
2018-05-01T10:55:16.854Z,13.67
2018-05-01T10:56:17.123Z,13.30
2018-05-01T10:57:16.379Z,13.48
2018-05-01T10:58:16.641Z,13.67
2018-05-01T10:59:16.907Z,13.92
2018-05-01T11:00:17.182Z,13.73
2018-05-01T11:01:17.238Z,13.92
2018-05-01T11:02:16.499Z,13.67
2018-05-01T11:03:16.756Z,13.42
2018-05-01T11:04:17.022Z,13.55
2018-05-01T11:05:16.287Z,13.67
2018-05-01T11:06:16.549Z,13.80
2018-05-01T11:07:16.808Z,13.11
2018-05-01T11:08:17.075Z,12.98
2018-05-01T11:09:16.863Z,12.67
2018-05-01T11:10:17.138Z,12.61
2018-05-01T11:11:17.177Z,12.92
2018-05-01T11:12:16.450Z,13.23
2018-05-01T11:13:16.721Z,13.23
2018-05-01T11:14:16.983Z,13.17
2018-05-01T11:15:17.249Z,13.23
2018-05-01T11:16:16.519Z,12.55
2018-05-01T11:17:16.776Z,12.55
2018-05-01T11:18:17.053Z,12.55
2018-05-01T11:19:16.320Z,12.42
2018-05-01T11:20:16.662Z,12.17
2018-05-01T11:21:16.694Z,12.36
2018-05-01T11:22:16.967Z,12.11
2018-05-01T11:23:17.223Z,12.05
2018-05-01T11:24:16.486Z,12.30
2018-05-01T11:25:16.744Z,12.61
2018-05-01T11:26:17.073Z,12.80
2018-05-01T11:27:16.856Z,12.61
2018-05-01T11:28:17.118Z,12.67
2018-05-01T11:29:16.382Z,12.48
2018-05-01T11:30:16.658Z,12.55
2018-05-01T11:31:16.689Z,12.55
2018-05-01T11:32:16.944Z,12.48
2018-05-01T11:33:17.209Z,12.30
2018-05-01T11:34:16.473Z,12.42
2018-05-01T11:35:16.730Z,12.73
2018-05-01T11:36:16.995Z,12.55
2018-05-01T11:37:17.274Z,12.23
2018-05-01T11:38:16.530Z,12.36
2018-05-01T11:39:16.791Z,12.61
2018-05-01T11:40:17.057Z,12.48
2018-05-01T11:41:17.112Z,12.48
2018-05-01T11:42:16.371Z,12.55
2018-05-01T11:43:16.639Z,12.55
2018-05-01T11:44:16.903Z,12.67
2018-05-01T11:45:17.180Z,12.67
2018-05-01T11:46:16.440Z,12.61
2018-05-01T11:47:16.706Z,12.55
2018-05-01T11:48:16.965Z,12.73
2018-05-01T11:49:17.231Z,12.55
2018-05-01T11:50:16.503Z,12.67
2018-05-01T11:51:16.551Z,13.05
2018-05-01T11:52:16.815Z,13.17
2018-05-01T11:53:17.069Z,13.23
2018-05-01T11:54:16.340Z,13.11
2018-05-01T11:55:16.601Z,13.48
2018-05-01T11:56:16.865Z,13.05
2018-05-01T11:57:17.432Z,12.80
2018-05-01T11:58:16.688Z,13.05
2018-05-01T11:59:16.969Z,13.05
2018-05-01T12:00:17.232Z,12.86
2018-05-01T12:01:16.275Z,12.86
2018-05-01T12:02:16.540Z,13.05
2018-05-01T12:03:16.808Z,12.86
2018-05-01T12:04:17.066Z,12.98
2018-05-01T12:05:16.332Z,13.05
2018-05-01T12:06:16.600Z,12.86
2018-05-01T12:07:16.864Z,13.30
2018-05-01T12:08:17.123Z,13.67
2018-05-01T12:09:16.397Z,13.73
2018-05-01T12:10:16.666Z,13.73
2018-05-01T12:11:16.721Z,13.80
2018-05-01T12:12:16.981Z,13.61
2018-05-01T12:13:17.236Z,13.61
2018-05-01T12:14:16.509Z,13.30
2018-05-01T12:15:16.777Z,13.11
2018-05-01T12:16:17.051Z,13.17
2018-05-01T12:17:16.308Z,13.17
2018-05-01T12:18:16.880Z,13.23
2018-05-01T12:19:17.158Z,12.92
2018-05-01T12:20:16.432Z,12.86
2018-05-01T12:21:16.479Z,12.86
2018-05-01T12:22:16.741Z,12.92
2018-05-01T12:23:17.004Z,12.86
2018-05-01T12:24:17.269Z,12.73
2018-05-01T12:25:16.528Z,12.80
2018-05-01T12:26:16.792Z,12.67
2018-05-01T12:27:17.051Z,12.92
2018-05-01T12:28:16.306Z,12.86
2018-05-01T12:29:16.572Z,13.17
2018-05-01T12:30:16.852Z,13.36
2018-05-01T12:31:16.889Z,13.42
2018-05-01T12:32:17.196Z,13.30
2018-05-01T12:33:16.458Z,13.36
2018-05-01T12:34:16.715Z,13.36
2018-05-01T12:35:16.971Z,13.36
2018-05-01T12:36:17.236Z,12.98
2018-05-01T12:37:16.500Z,13.17
2018-05-01T12:38:16.760Z,13.05
2018-05-01T12:39:17.014Z,13.36
2018-05-01T12:40:16.279Z,13.55
2018-05-01T12:41:16.319Z,13.73
2018-05-01T12:42:16.579Z,14.11
2018-05-01T12:43:16.837Z,14.11
2018-05-01T12:44:17.124Z,14.11
2018-05-01T12:45:16.383Z,13.55
2018-05-01T12:46:16.642Z,13.48
2018-05-01T12:47:16.898Z,13.61
2018-05-01T12:48:17.282Z,14.17
2018-05-01T12:49:16.745Z,14.30
2018-05-01T12:50:17.015Z,14.30
2018-05-01T12:51:17.355Z,14.17
2018-05-01T12:52:16.612Z,14.42
2018-05-01T12:53:16.872Z,14.61
2018-05-01T12:54:17.141Z,14.30
2018-05-01T12:55:16.392Z,13.86
2018-05-01T12:56:16.659Z,14.17
2018-05-01T12:57:16.920Z,14.23
2018-05-01T12:58:17.179Z,13.86
2018-05-01T12:59:16.491Z,13.86
2018-05-01T13:00:17.021Z,13.80
2018-05-01T13:01:17.054Z,13.86